Time;durP1;ratioP1;P1;durP2;ratioP2;P2;SDS_P1;SDS_P2;PMS_P1;PMS_P2;Temp;Humidity;BMP_temperature;BMP_pressure;BME280_temperature;BME280_humidity;BME280_pressure;Samples;Min_cycle;Max_cycle;Signal;HPM_P1;HPM_P2
2022/02/06 00:01:14;;;;;;;;;2.50;1.00;;;;;;;;5060251;28;10416;-74
2022/02/06 00:03:42;;;;;;;;;1.00;1.00;;;;;;;;5036080;28;10408;-73
2022/02/06 00:06:09;;;;;;;;;5.25;2.50;;;;;;;;5059769;28;10404;-74
2022/02/06 00:08:38;;;;;;;;;4.00;2.00;;;;;;;;5058292;28;10336;-73
2022/02/06 00:11:06;;;;;;;;;0.50;0.50;;;;;;;;5052678;28;10478;-74
2022/02/06 00:13:34;;;;;;;;;0.25;0.25;;;;;;;;5056744;28;10238;-74
2022/02/06 00:16:01;;;;;;;;;2.50;2.00;;;;;;;;5032281;28;10268;-74
2022/02/06 00:18:30;;;;;;;;;2.00;2.00;;;;;;;;5055576;28;10376;-73
2022/02/06 00:21:01;;;;;;;;;1.00;1.00;;;;;;;;5060756;28;11119;-76
2022/02/06 00:23:30;;;;;;;;;1.75;1.75;;;;;;;;5051488;28;10343;-73
2022/02/06 00:26:03;;;;;;;;;1.00;1.00;;;;;;;;5059036;28;10515;-73
2022/02/06 00:28:42;;;;;;;;;2.50;1.00;;;;;;;;5058601;28;10422;-73
2022/02/06 00:31:15;;;;;;;;;2.00;2.00;;;;;;;;5056342;28;10277;-73
2022/02/06 00:34:04;;;;;;;;;2.00;2.00;;;;;;;;5060791;28;11136;-73
2022/02/06 00:39:21;;;;;;;;;1.25;1.25;;;;;;;;5005613;28;10358;-73
2022/02/06 00:41:48;;;;;;;;;1.00;1.00;;;;;;;;5054336;28;11146;-74
2022/02/06 00:44:16;;;;;;;;;1.00;1.00;;;;;;;;5050754;28;10319;-75
2022/02/06 00:46:44;;;;;;;;;1.00;1.00;;;;;;;;5060378;28;10511;-74
2022/02/06 00:49:16;;;;;;;;;1.00;1.00;;;;;;;;5063323;28;10323;-74
2022/02/06 00:51:52;;;;;;;;;0.50;0.50;;;;;;;;5042996;28;11133;-77
2022/02/06 00:54:19;;;;;;;;;1.00;1.00;;;;;;;;5042565;28;10244;-73
2022/02/06 00:56:46;;;;;;;;;1.75;1.75;;;;;;;;5056351;28;10288;-74
2022/02/06 00:59:13;;;;;;;;;3.00;1.00;;;;;;;;5054327;28;10381;-74
2022/02/06 01:01:42;;;;;;;;;0.00;0.00;;;;;;;;5052689;28;10197;-73
2022/02/06 01:04:11;;;;;;;;;2.50;2.00;;;;;;;;5050251;28;10369;-74
2022/02/06 01:06:40;;;;;;;;;1.00;0.75;;;;;;;;5060757;28;10421;-73
2022/02/06 01:09:08;;;;;;;;;1.00;1.00;;;;;;;;5062355;28;10418;-73
2022/02/06 01:11:37;;;;;;;;;1.00;1.00;;;;;;;;5057887;28;11128;-73
2022/02/06 01:14:11;;;;;;;;;1.00;1.00;;;;;;;;5055783;28;10500;-73
2022/02/06 01:16:43;;;;;;;;;1.00;1.00;;;;;;;;5037283;28;10239;-74
2022/02/06 01:19:14;;;;;;;;;2.25;1.25;;;;;;;;5052106;28;10317;-74
2022/02/06 01:21:52;;;;;;;;;2.75;1.75;;;;;;;;5057213;28;10242;-74
2022/02/06 01:24:23;;;;;;;;;1.75;1.75;;;;;;;;5045345;28;10309;-73
2022/02/06 01:26:54;;;;;;;;;1.50;1.50;;;;;;;;5029165;28;10241;-73
2022/02/06 01:29:33;;;;;;;;;1.00;1.00;;;;;;;;5058142;28;10304;-73
2022/02/06 01:32:04;;;;;;;;;1.75;1.75;;;;;;;;5051387;28;10269;-73
2022/02/06 01:34:40;;;;;;;;;0.00;0.00;;;;;;;;5053784;28;10872;-73
2022/02/06 01:37:18;;;;;;;;;1.00;1.00;;;;;;;;5051146;28;10284;-73
2022/02/06 01:39:57;;;;;;;;;1.25;1.25;;;;;;;;5056597;28;10325;-73
2022/02/06 01:42:31;;;;;;;;;4.00;1.75;;;;;;;;5049667;28;10321;-73
2022/02/06 02:01:41;;;;;;;;;2.50;2.00;;;;;;;;5064347;28;10185;-73
2022/02/06 02:04:14;;;;;;;;;1.00;1.00;;;;;;;;5045018;28;10473;-72
2022/02/06 02:10:14;;;;;;;;;1.00;1.00;;;;;;;;5003449;28;10333;-72
2022/02/06 02:12:55;;;;;;;;;1.75;1.75;;;;;;;;5059099;28;10368;-75
2022/02/06 02:16:03;;;;;;;;;1.00;1.00;;;;;;;;5043633;28;10357;-75
2022/02/06 02:18:57;;;;;;;;;2.00;1.00;;;;;;;;5055378;28;10286;-72
2022/02/06 02:27:07;;;;;;;;;0.00;0.00;;;;;;;;5063773;28;10415;-73
2022/02/06 02:33:05;;;;;;;;;0.25;0.25;;;;;;;;5043740;28;10368;-72
2022/02/06 02:44:43;;;;;;;;;0.75;0.75;;;;;;;;5054799;28;10361;-72
2022/02/06 02:47:11;;;;;;;;;3.25;0.50;;;;;;;;5052325;28;10305;-72
2022/02/06 02:49:39;;;;;;;;;1.75;1.00;;;;;;;;5051861;28;10494;-72
2022/02/06 02:52:14;;;;;;;;;1.00;1.00;;;;;;;;5056506;28;10431;-74
2022/02/06 02:54:48;;;;;;;;;1.00;1.00;;;;;;;;5059970;28;10187;-73
2022/02/06 02:57:21;;;;;;;;;1.00;1.00;;;;;;;;5057342;28;10353;-73
2022/02/06 03:00:01;;;;;;;;;1.25;1.25;;;;;;;;5053360;28;10320;-74
2022/02/06 03:02:28;;;;;;;;;1.50;1.50;;;;;;;;5055196;28;10322;-73
2022/02/06 03:04:58;;;;;;;;;1.50;1.00;;;;;;;;5054412;28;10537;-73
2022/02/06 03:07:25;;;;;;;;;1.00;1.00;;;;;;;;5057469;28;10233;-72
2022/02/06 03:09:54;;;;;;;;;0.00;0.00;;;;;;;;5051105;28;11330;-73
2022/02/06 03:12:26;;;;;;;;;1.25;1.25;;;;;;;;5057951;28;10316;-73
2022/02/06 03:15:00;;;;;;;;;1.00;1.00;;;;;;;;5051274;28;10253;-74
2022/02/06 03:17:36;;;;;;;;;1.00;1.00;;;;;;;;5063019;28;10477;-74
2022/02/06 03:20:08;;;;;;;;;2.00;2.00;;;;;;;;5051870;28;10418;-73
2022/02/06 03:22:47;;;;;;;;;1.25;1.25;;;;;;;;5051342;28;11139;-72
2022/02/06 03:25:20;;;;;;;;;1.00;1.00;;;;;;;;5056677;28;10293;-72
2022/02/06 03:27:47;;;;;;;;;0.25;0.25;;;;;;;;5060615;28;10535;-73
2022/02/06 03:30:14;;;;;;;;;1.00;1.00;;;;;;;;5055652;28;10486;-73
2022/02/06 03:32:42;;;;;;;;;1.50;1.25;;;;;;;;5053151;28;11304;-73
2022/02/06 03:35:10;;;;;;;;;1.00;1.00;;;;;;;;5049809;28;10374;-73
2022/02/06 03:37:39;;;;;;;;;1.00;1.00;;;;;;;;5045579;28;11310;-73
2022/02/06 03:40:17;;;;;;;;;1.00;1.00;;;;;;;;5032368;28;10405;-72
2022/02/06 03:42:57;;;;;;;;;0.00;0.00;;;;;;;;5041174;28;10306;-74
2022/02/06 03:45:31;;;;;;;;;2.00;2.00;;;;;;;;5044811;28;10369;-73
2022/02/06 03:48:10;;;;;;;;;1.00;1.00;;;;;;;;5061184;28;10421;-75
2022/02/06 03:50:38;;;;;;;;;1.00;1.00;;;;;;;;5060992;28;10382;-73
2022/02/06 03:53:06;;;;;;;;;1.00;1.00;;;;;;;;5061142;28;10429;-71
2022/02/06 03:55:34;;;;;;;;;2.00;1.00;;;;;;;;5063064;28;10448;-72
2022/02/06 03:58:03;;;;;;;;;2.00;2.00;;;;;;;;5063614;28;10426;-73
2022/02/06 04:00:30;;;;;;;;;0.00;0.00;;;;;;;;5058271;28;10420;-73
2022/02/06 04:02:57;;;;;;;;;0.00;0.00;;;;;;;;5046108;28;10334;-72
2022/02/06 04:05:24;;;;;;;;;1.00;1.00;;;;;;;;5057553;28;10458;-73
2022/02/06 04:07:52;;;;;;;;;3.00;0.00;;;;;;;;5056500;28;10411;-74
2022/02/06 04:10:20;;;;;;;;;2.25;1.00;;;;;;;;5051120;28;10222;-72
2022/02/06 04:12:49;;;;;;;;;2.00;2.00;;;;;;;;5038098;28;10417;-73
2022/02/06 04:15:23;;;;;;;;;0.25;0.25;;;;;;;;5044613;28;10405;-75
2022/02/06 04:17:56;;;;;;;;;2.00;0.00;;;;;;;;5063422;28;10313;-73
2022/02/06 04:20:24;;;;;;;;;1.50;1.50;;;;;;;;5056188;28;10514;-73
2022/02/06 04:22:51;;;;;;;;;0.50;0.50;;;;;;;;5036682;28;10482;-75
2022/02/06 04:25:18;;;;;;;;;2.00;0.75;;;;;;;;5048827;28;10393;-75
2022/02/06 04:27:45;;;;;;;;;1.00;1.00;;;;;;;;5057644;28;10390;-76
2022/02/06 04:30:13;;;;;;;;;0.00;0.00;;;;;;;;5044623;28;10421;-74
2022/02/06 04:32:41;;;;;;;;;0.50;0.50;;;;;;;;5054971;28;10426;-73
2022/02/06 04:35:15;;;;;;;;;1.00;0.25;;;;;;;;5056581;28;10299;-74
2022/02/06 04:37:55;;;;;;;;;1.50;1.00;;;;;;;;5058301;28;10236;-73
2022/02/06 04:40:36;;;;;;;;;2.00;2.00;;;;;;;;5061407;28;10402;-74
2022/02/06 04:43:25;;;;;;;;;5.75;4.50;;;;;;;;5048165;28;10419;-73
2022/02/06 05:16:37;;;;;;;;;1.25;1.25;;;;;;;;5050846;28;10299;-73
2022/02/06 05:22:09;;;;;;;;;2.00;2.00;;;;;;;;5052052;28;10355;-73
2022/02/06 05:24:59;;;;;;;;;2.00;2.00;;;;;;;;5043071;28;10401;-73
2022/02/06 05:27:46;;;;;;;;;0.25;0.25;;;;;;;;5053107;28;10515;-74
2022/02/06 05:30:17;;;;;;;;;0.75;0.75;;;;;;;;5056474;28;10250;-73
2022/02/06 05:32:58;;;;;;;;;0.00;0.00;;;;;;;;5050168;28;10271;-74
2022/02/06 05:35:26;;;;;;;;;0.25;0.00;;;;;;;;5051484;28;10236;-73
2022/02/06 05:37:55;;;;;;;;;0.75;0.75;;;;;;;;5055871;28;10177;-74
2022/02/06 05:40:22;;;;;;;;;0.00;0.00;;;;;;;;5052637;28;10095;-73
2022/02/06 05:42:50;;;;;;;;;0.00;0.00;;;;;;;;5053068;28;10284;-73
2022/02/06 05:45:19;;;;;;;;;0.25;0.25;;;;;;;;5049980;28;10166;-73
2022/02/06 05:47:46;;;;;;;;;0.50;0.50;;;;;;;;5053869;28;10146;-73
2022/02/06 05:50:15;;;;;;;;;1.00;1.00;;;;;;;;5057509;28;10230;-73
2022/02/06 05:52:42;;;;;;;;;1.00;1.00;;;;;;;;5052343;28;11129;-73
2022/02/06 05:55:12;;;;;;;;;1.00;1.00;;;;;;;;5058241;28;10098;-74
2022/02/06 05:57:42;;;;;;;;;4.50;1.00;;;;;;;;5062908;28;11095;-73
2022/02/06 06:00:11;;;;;;;;;1.00;0.00;;;;;;;;5059756;28;10329;-73
2022/02/06 06:02:38;;;;;;;;;0.50;0.50;;;;;;;;5048191;28;10095;-73
2022/02/06 06:05:06;;;;;;;;;0.00;0.00;;;;;;;;5051288;28;11013;-73
2022/02/06 06:07:33;;;;;;;;;2.00;0.75;;;;;;;;5054411;28;10189;-73
2022/02/06 06:10:00;;;;;;;;;1.00;1.00;;;;;;;;5053964;28;10347;-72
2022/02/06 06:12:29;;;;;;;;;2.25;1.00;;;;;;;;5029961;28;10105;-73
2022/02/06 06:14:57;;;;;;;;;0.00;0.00;;;;;;;;5060940;28;10160;-72
2022/02/06 06:17:24;;;;;;;;;1.00;1.00;;;;;;;;5053545;28;10201;-72
2022/02/06 06:19:52;;;;;;;;;1.00;1.00;;;;;;;;5046458;28;10243;-73
2022/02/06 06:22:20;;;;;;;;;0.50;0.50;;;;;;;;5053876;28;10169;-74
2022/02/06 06:24:53;;;;;;;;;1.00;0.00;;;;;;;;5050288;28;10220;-73
2022/02/06 06:27:21;;;;;;;;;1.00;1.00;;;;;;;;5050937;28;10248;-73
2022/02/06 06:29:49;;;;;;;;;2.00;1.00;;;;;;;;5054446;28;10087;-73
2022/02/06 06:32:17;;;;;;;;;1.00;1.00;;;;;;;;5057858;28;10146;-73
2022/02/06 06:34:44;;;;;;;;;1.50;1.50;;;;;;;;5052016;28;10210;-73
2022/02/06 06:37:12;;;;;;;;;1.00;1.00;;;;;;;;5058591;28;11040;-73
2022/02/06 06:39:42;;;;;;;;;0.00;0.00;;;;;;;;5056093;28;10178;-73
2022/02/06 06:42:10;;;;;;;;;0.75;0.75;;;;;;;;5052639;28;10210;-73
2022/02/06 06:44:39;;;;;;;;;1.00;1.00;;;;;;;;5046541;28;10165;-72
2022/02/06 06:47:10;;;;;;;;;0.00;0.00;;;;;;;;5068201;28;10019;-77
2022/02/06 06:49:37;;;;;;;;;0.00;0.00;;;;;;;;5052961;28;10248;-76
2022/02/06 06:52:05;;;;;;;;;0.50;0.50;;;;;;;;5060287;28;10137;-77
2022/02/06 06:54:38;;;;;;;;;0.75;0.00;;;;;;;;5052368;28;10259;-78
2022/02/06 06:57:11;;;;;;;;;3.00;1.00;;;;;;;;5052756;28;10003;-77
2022/02/06 07:00:09;;;;;;;;;1.50;1.50;;;;;;;;5063701;28;10201;-77
2022/02/06 07:02:37;;;;;;;;;0.75;0.75;;;;;;;;5065884;28;10039;-77
2022/02/06 07:05:06;;;;;;;;;4.00;1.75;;;;;;;;5064549;28;10114;-77
2022/02/06 07:07:34;;;;;;;;;0.25;0.00;;;;;;;;5066607;28;10041;-76
2022/02/06 07:10:02;;;;;;;;;0.50;0.50;;;;;;;;5067821;28;11250;-77
2022/02/06 07:12:29;;;;;;;;;0.50;0.00;;;;;;;;5068298;28;10876;-76
2022/02/06 07:14:57;;;;;;;;;1.75;1.00;;;;;;;;5068365;28;10107;-76
2022/02/06 07:17:24;;;;;;;;;2.00;0.00;;;;;;;;5064453;28;10129;-76
2022/02/06 07:19:53;;;;;;;;;0.00;0.00;;;;;;;;5068365;28;10089;-80
2022/02/06 07:22:21;;;;;;;;;0.25;0.25;;;;;;;;5065104;28;9977;-77
2022/02/06 07:24:51;;;;;;;;;0.00;0.00;;;;;;;;5069410;28;10034;-80
2022/02/06 07:27:23;;;;;;;;;0.25;0.25;;;;;;;;5067264;28;10090;-80
2022/02/06 07:29:51;;;;;;;;;1.00;1.00;;;;;;;;5065848;28;10164;-79
2022/02/06 07:32:19;;;;;;;;;0.00;0.00;;;;;;;;5067139;28;10133;-76
2022/02/06 07:34:46;;;;;;;;;2.00;0.00;;;;;;;;5067197;28;10138;-78
2022/02/06 07:37:15;;;;;;;;;1.00;1.00;;;;;;;;5066546;28;9952;-77
2022/02/06 07:39:42;;;;;;;;;0.50;0.50;;;;;;;;5065199;28;10042;-77
2022/02/06 07:42:11;;;;;;;;;1.00;1.00;;;;;;;;5067947;28;9943;-78
2022/02/06 07:44:39;;;;;;;;;0.00;0.00;;;;;;;;5063781;28;9976;-79
2022/02/06 07:47:14;;;;;;;;;1.00;0.00;;;;;;;;5058080;28;10022;-80
2022/02/06 07:49:44;;;;;;;;;1.00;1.00;;;;;;;;5054643;28;10741;-80
2022/02/06 07:52:11;;;;;;;;;1.00;1.00;;;;;;;;5055807;28;10076;-80
2022/02/06 07:54:40;;;;;;;;;0.00;0.00;;;;;;;;5053842;28;9945;-80
2022/02/06 07:57:07;;;;;;;;;0.00;0.00;;;;;;;;5050177;28;11296;-81
2022/02/06 07:59:36;;;;;;;;;0.75;0.25;;;;;;;;5060117;28;9957;-78
2022/02/06 08:02:04;;;;;;;;;0.00;0.00;;;;;;;;5050637;28;9890;-79
2022/02/06 08:04:31;;;;;;;;;1.00;0.00;;;;;;;;5056514;28;9922;-79
2022/02/06 08:06:58;;;;;;;;;1.00;1.00;;;;;;;;5059077;28;9936;-80
2022/02/06 08:09:42;;;;;;;;;1.00;1.00;;;;;;;;5059230;28;10224;-80
2022/02/06 08:12:11;;;;;;;;;0.00;0.00;;;;;;;;5059183;28;10022;-79
2022/02/06 08:14:51;;;;;;;;;1.00;1.00;;;;;;;;5057503;28;10075;-81
2022/02/06 08:17:20;;;;;;;;;0.50;0.25;;;;;;;;5058902;28;9999;-78
2022/02/06 08:19:48;;;;;;;;;0.25;0.25;;;;;;;;5052035;28;9982;-77
2022/02/06 08:22:16;;;;;;;;;0.00;0.00;;;;;;;;5057237;28;10813;-76
2022/02/06 08:24:44;;;;;;;;;2.00;0.25;;;;;;;;5058078;28;10975;-76
2022/02/06 08:27:12;;;;;;;;;0.00;0.00;;;;;;;;5056485;28;9924;-77
2022/02/06 08:29:43;;;;;;;;;2.75;1.00;;;;;;;;5060273;28;9930;-75
2022/02/06 08:32:10;;;;;;;;;0.00;0.00;;;;;;;;5058917;28;9886;-76
2022/02/06 08:34:37;;;;;;;;;0.50;0.00;;;;;;;;5054235;28;10040;-79
2022/02/06 08:37:05;;;;;;;;;0.00;0.00;;;;;;;;5053309;28;9849;-78
2022/02/06 08:39:34;;;;;;;;;0.50;0.00;;;;;;;;5054231;28;10032;-77
2022/02/06 08:42:03;;;;;;;;;0.00;0.00;;;;;;;;5053324;28;10604;-79
2022/02/06 08:44:31;;;;;;;;;2.00;1.00;;;;;;;;5044411;28;9954;-78
2022/02/06 08:46:59;;;;;;;;;1.00;1.00;;;;;;;;5057153;28;10200;-76
2022/02/06 08:49:26;;;;;;;;;1.00;1.00;;;;;;;;5041692;28;9965;-75
2022/02/06 08:51:53;;;;;;;;;1.00;1.00;;;;;;;;5052953;28;10254;-76
2022/02/06 08:54:25;;;;;;;;;1.25;1.25;;;;;;;;5059023;28;10113;-78
2022/02/06 08:56:52;;;;;;;;;1.75;0.00;;;;;;;;5050880;28;10221;-80
2022/02/06 08:59:20;;;;;;;;;1.00;1.00;;;;;;;;5057191;28;10185;-77
2022/02/06 09:01:48;;;;;;;;;0.75;0.75;;;;;;;;5051370;28;10176;-80
2022/02/06 09:04:16;;;;;;;;;0.00;0.00;;;;;;;;5045443;28;10141;-78
2022/02/06 09:06:43;;;;;;;;;0.50;0.50;;;;;;;;5056041;28;9987;-74
2022/02/06 09:09:13;;;;;;;;;3.00;1.00;;;;;;;;5057618;28;10243;-77
2022/02/06 09:11:40;;;;;;;;;1.00;1.00;;;;;;;;5052131;28;10111;-78
2022/02/06 09:14:08;;;;;;;;;2.00;1.00;;;;;;;;5055830;28;11339;-83
2022/02/06 09:16:37;;;;;;;;;1.00;1.00;;;;;;;;5058660;28;10965;-80
2022/02/06 09:19:06;;;;;;;;;0.00;0.00;;;;;;;;5042616;28;10242;-80
2022/02/06 09:21:34;;;;;;;;;0.00;0.00;;;;;;;;5051157;28;9972;-75
2022/02/06 09:24:02;;;;;;;;;0.00;0.00;;;;;;;;5054831;28;10192;-77
2022/02/06 09:26:30;;;;;;;;;0.25;0.25;;;;;;;;5059978;28;11017;-77
2022/02/06 09:28:58;;;;;;;;;1.00;1.00;;;;;;;;5056097;28;9949;-78
2022/02/06 09:31:26;;;;;;;;;1.00;1.00;;;;;;;;5045614;28;10003;-80
2022/02/06 09:36:21;;;;;;;;;0.00;0.00;;;;;;;;5057060;28;10069;-82
2022/02/06 09:38:48;;;;;;;;;0.50;0.50;;;;;;;;5056786;28;10015;-80
2022/02/06 09:41:16;;;;;;;;;1.00;1.00;;;;;;;;5057560;28;10018;-78
2022/02/06 09:43:45;;;;;;;;;1.25;1.25;;;;;;;;5056510;28;9929;-79
2022/02/06 09:46:15;;;;;;;;;1.00;1.00;;;;;;;;5057169;28;10038;-80
2022/02/06 09:48:43;;;;;;;;;0.75;0.75;;;;;;;;5055524;28;10164;-81
2022/02/06 09:51:11;;;;;;;;;1.00;1.00;;;;;;;;5058337;28;10028;-83
2022/02/06 09:53:40;;;;;;;;;1.50;1.00;;;;;;;;5055282;28;10882;-80
2022/02/06 09:56:11;;;;;;;;;1.50;1.50;;;;;;;;5047172;28;10165;-79
2022/02/06 09:59:00;;;;;;;;;0.00;0.00;;;;;;;;5055767;28;10166;-80
2022/02/06 10:01:28;;;;;;;;;0.75;0.75;;;;;;;;5049309;28;10050;-82
2022/02/06 10:04:03;;;;;;;;;3.00;1.00;;;;;;;;5049696;28;10201;-78
2022/02/06 10:06:45;;;;;;;;;1.00;1.00;;;;;;;;5050178;28;10126;-78
2022/02/06 10:09:19;;;;;;;;;1.25;0.75;;;;;;;;5054038;28;10083;-76
2022/02/06 10:11:48;;;;;;;;;2.00;0.00;;;;;;;;5056424;28;10849;-78
2022/02/06 10:14:15;;;;;;;;;2.75;1.00;;;;;;;;5059445;28;9948;-75
2022/02/06 10:16:43;;;;;;;;;0.25;0.25;;;;;;;;5047840;28;10261;-79
2022/02/06 10:19:10;;;;;;;;;1.00;1.00;;;;;;;;5061416;28;10045;-77
2022/02/06 10:21:38;;;;;;;;;0.25;0.25;;;;;;;;5057088;28;10139;-77
2022/02/06 10:24:12;;;;;;;;;0.00;0.00;;;;;;;;5056877;28;9859;-79
2022/02/06 10:26:52;;;;;;;;;0.75;0.75;;;;;;;;5051679;28;9901;-77
2022/02/06 10:29:36;;;;;;;;;1.00;1.00;;;;;;;;5047385;28;9927;-80
2022/02/06 10:32:04;;;;;;;;;0.00;0.00;;;;;;;;5056395;28;9883;-80
2022/02/06 10:34:35;;;;;;;;;1.00;1.00;;;;;;;;5056297;28;10719;-81
2022/02/06 10:37:18;;;;;;;;;0.00;0.00;;;;;;;;5044517;28;9831;-78
2022/02/06 10:39:56;;;;;;;;;0.75;0.50;;;;;;;;5055291;28;9838;-79
2022/02/06 10:42:26;;;;;;;;;1.00;1.00;;;;;;;;5055669;28;10068;-80
2022/02/06 10:45:13;;;;;;;;;1.50;0.00;;;;;;;;5057916;28;9918;-78
2022/02/06 10:47:41;;;;;;;;;0.00;0.00;;;;;;;;5058715;28;9840;-77
2022/02/06 10:50:11;;;;;;;;;1.00;0.00;;;;;;;;5055905;28;9874;-78
2022/02/06 10:52:40;;;;;;;;;0.00;0.00;;;;;;;;5054975;28;9763;-76
2022/02/06 10:55:08;;;;;;;;;2.00;0.75;;;;;;;;5038617;28;9723;-77
2022/02/06 10:57:38;;;;;;;;;0.25;0.25;;;;;;;;5053180;28;9863;-80
2022/02/06 11:00:08;;;;;;;;;1.00;0.00;;;;;;;;5056206;28;9716;-86
2022/02/06 11:02:46;;;;;;;;;0.00;0.00;;;;;;;;5055208;28;9712;-80
2022/02/06 11:05:17;;;;;;;;;0.00;0.00;;;;;;;;5058315;28;9716;-79
2022/02/06 11:07:54;;;;;;;;;0.00;0.00;;;;;;;;5054857;28;9708;-74
2022/02/06 11:10:23;;;;;;;;;0.00;0.00;;;;;;;;5057574;28;9731;-79
2022/02/06 11:12:53;;;;;;;;;0.00;0.00;;;;;;;;5061330;28;9572;-79
2022/02/06 11:15:27;;;;;;;;;0.50;0.50;;;;;;;;5057034;28;9523;-76
2022/02/06 11:18:07;;;;;;;;;0.50;0.50;;;;;;;;5056656;28;9497;-77
2022/02/06 11:20:36;;;;;;;;;0.25;0.25;;;;;;;;5067278;28;9709;-77
2022/02/06 11:23:03;;;;;;;;;0.00;0.00;;;;;;;;5060898;28;9763;-76
2022/02/06 11:25:37;;;;;;;;;0.00;0.00;;;;;;;;5059533;28;9515;-84
2022/02/06 11:28:07;;;;;;;;;0.00;0.00;;;;;;;;5055487;28;9533;-78
2022/02/06 11:30:35;;;;;;;;;1.00;1.00;;;;;;;;5055193;28;9335;-81
2022/02/06 11:33:06;;;;;;;;;0.00;0.00;;;;;;;;5055771;28;9591;-78
2022/02/06 11:35:36;;;;;;;;;0.00;0.00;;;;;;;;5034339;28;10590;-78
2022/02/06 11:44:26;;;;;;;;;0.00;0.00;;;;;;;;5049967;28;9611;-78
2022/02/06 11:47:04;;;;;;;;;1.00;1.00;;;;;;;;5066334;28;9510;-82
2022/02/06 11:49:32;;;;;;;;;0.00;0.00;;;;;;;;5062965;28;9551;-79
2022/02/06 11:52:00;;;;;;;;;0.50;0.00;;;;;;;;5057691;28;9569;-84
2022/02/06 11:54:29;;;;;;;;;0.75;0.75;;;;;;;;5062653;28;9624;-86
2022/02/06 11:57:20;;;;;;;;;0.75;0.75;;;;;;;;5058373;28;10239;-80
2022/02/06 12:00:20;;;;;;;;;0.00;0.00;;;;;;;;5062022;28;9547;-85
2022/02/06 12:02:51;;;;;;;;;0.50;0.50;;;;;;;;5053375;28;9536;-82
2022/02/06 12:05:30;;;;;;;;;0.00;0.00;;;;;;;;5048073;28;9506;-79
2022/02/06 12:08:05;;;;;;;;;0.00;0.00;;;;;;;;5059177;28;9542;-82
2022/02/06 12:11:13;;;;;;;;;2.00;0.00;;;;;;;;5040656;28;9630;-80
2022/02/06 12:13:45;;;;;;;;;0.00;0.00;;;;;;;;4993022;28;9443;-78
2022/02/06 12:16:26;;;;;;;;;1.75;1.00;;;;;;;;5047150;28;9556;-83
2022/02/06 12:18:54;;;;;;;;;0.50;0.50;;;;;;;;5053175;28;9563;-76
2022/02/06 12:21:23;;;;;;;;;2.00;0.00;;;;;;;;5053004;28;9699;-79
2022/02/06 12:23:54;;;;;;;;;0.00;0.00;;;;;;;;5054530;28;9593;-81
2022/02/06 12:26:40;;;;;;;;;2.75;0.75;;;;;;;;5059185;28;10392;-81
2022/02/06 12:29:11;;;;;;;;;2.75;0.00;;;;;;;;5046139;28;9508;-80
2022/02/06 12:31:59;;;;;;;;;0.25;0.25;;;;;;;;5051561;28;9443;-84
2022/02/06 12:37:34;;;;;;;;;0.25;0.25;;;;;;;;5046252;28;9533;-83
2022/02/06 12:40:05;;;;;;;;;0.00;0.00;;;;;;;;5060815;28;9606;-81
2022/02/06 12:42:35;;;;;;;;;0.00;0.00;;;;;;;;5048065;28;10553;-84
2022/02/06 12:45:06;;;;;;;;;0.00;0.00;;;;;;;;5054582;28;9634;-81
2022/02/06 12:47:41;;;;;;;;;0.00;0.00;;;;;;;;5050139;28;9558;-83
2022/02/06 12:50:22;;;;;;;;;0.00;0.00;;;;;;;;5063333;28;9497;-75
2022/02/06 12:52:51;;;;;;;;;0.00;0.00;;;;;;;;5052444;28;9317;-77
2022/02/06 12:55:19;;;;;;;;;0.00;0.00;;;;;;;;5048801;28;9340;-80
2022/02/06 12:57:48;;;;;;;;;0.00;0.00;;;;;;;;5048843;28;9361;-77
2022/02/06 13:00:46;;;;;;;;;0.00;0.00;;;;;;;;5048375;28;9420;-75
2022/02/06 13:03:27;;;;;;;;;0.00;0.00;;;;;;;;5042440;28;9442;-82
2022/02/06 13:06:00;;;;;;;;;0.00;0.00;;;;;;;;5054417;28;9402;-81
2022/02/06 13:08:28;;;;;;;;;0.00;0.00;;;;;;;;5058302;28;9890;-85
2022/02/06 13:11:00;;;;;;;;;0.00;0.00;;;;;;;;5062363;28;10290;-80
2022/02/06 13:13:34;;;;;;;;;0.75;0.25;;;;;;;;5053842;28;9474;-84
2022/02/06 13:16:14;;;;;;;;;1.00;1.00;;;;;;;;5061246;28;9415;-86
2022/02/06 13:21:38;;;;;;;;;0.00;0.00;;;;;;;;5054269;28;9500;-77
2022/02/06 13:24:14;;;;;;;;;0.33;0.00;;;;;;;;5054555;28;9334;-80
2022/02/06 13:26:52;;;;;;;;;0.50;0.50;;;;;;;;5048228;28;9481;-78
2022/02/06 13:29:32;;;;;;;;;0.50;0.50;;;;;;;;5054624;28;9439;-80
2022/02/06 13:32:17;;;;;;;;;0.00;0.00;;;;;;;;5049935;28;9429;-77
2022/02/06 13:35:05;;;;;;;;;0.25;0.25;;;;;;;;5051308;28;9515;-82
2022/02/06 13:37:43;;;;;;;;;0.00;0.00;;;;;;;;5060955;28;9476;-84
2022/02/06 13:40:16;;;;;;;;;0.00;0.00;;;;;;;;5056114;28;10284;-85
2022/02/06 13:42:59;;;;;;;;;0.00;0.00;;;;;;;;5060200;28;9546;-83
2022/02/06 13:45:28;;;;;;;;;0.00;0.00;;;;;;;;5055566;28;9617;-86
2022/02/06 13:47:56;;;;;;;;;0.00;0.00;;;;;;;;5061228;28;9387;-88
2022/02/06 13:50:26;;;;;;;;;0.00;0.00;;;;;;;;5060268;28;9085;-86
2022/02/06 13:53:11;;;;;;;;;2.00;0.00;;;;;;;;5044075;28;9302;-86
2022/02/06 13:55:47;;;;;;;;;3.33;2.00;;;;;;;;5051337;28;9113;-83
2022/02/06 13:58:15;;;;;;;;;0.00;0.00;;;;;;;;5058919;28;9162;-86
2022/02/06 14:00:56;;;;;;;;;1.33;0.00;;;;;;;;5053669;28;9020;-80
2022/02/06 14:03:25;;;;;;;;;2.00;0.00;;;;;;;;5060915;28;8994;-82
2022/02/06 14:05:55;;;;;;;;;3.00;0.00;;;;;;;;5053215;28;9202;-81
2022/02/06 14:08:23;;;;;;;;;0.50;0.00;;;;;;;;5039434;28;8977;-81
2022/02/06 14:11:08;;;;;;;;;0.00;0.00;;;;;;;;5061085;28;8877;-84
2022/02/06 14:13:35;;;;;;;;;0.00;0.00;;;;;;;;5059712;28;8932;-80
2022/02/06 14:16:04;;;;;;;;;0.00;0.00;;;;;;;;5058930;28;8966;-82
2022/02/06 14:18:32;;;;;;;;;1.50;0.00;;;;;;;;5059186;28;9039;-81
2022/02/06 14:21:01;;;;;;;;;1.00;0.00;;;;;;;;5053612;28;8896;-81
2022/02/06 14:23:29;;;;;;;;;0.33;0.00;;;;;;;;5056116;28;9057;-81
2022/02/06 14:26:12;;;;;;;;;0.00;0.00;;;;;;;;5063165;28;8966;-82
2022/02/06 14:28:48;;;;;;;;;0.00;0.00;;;;;;;;5058972;28;8873;-84
2022/02/06 14:31:26;;;;;;;;;0.00;0.00;;;;;;;;5053041;28;8899;-83
2022/02/06 14:33:54;;;;;;;;;0.00;0.00;;;;;;;;5059178;28;9039;-84
2022/02/06 14:36:25;;;;;;;;;0.00;0.00;;;;;;;;5060531;28;9007;-82
2022/02/06 14:38:59;;;;;;;;;0.00;0.00;;;;;;;;5057233;28;9046;-85
2022/02/06 14:41:35;;;;;;;;;0.00;0.00;;;;;;;;5064786;28;9200;-90
2022/02/06 14:44:06;;;;;;;;;0.00;0.00;;;;;;;;5056916;28;9113;-87
2022/02/06 14:46:34;;;;;;;;;0.00;0.00;;;;;;;;5065031;28;9237;-82
2022/02/06 14:49:04;;;;;;;;;0.00;0.00;;;;;;;;5054119;28;9113;-75
2022/02/06 14:51:34;;;;;;;;;0.00;0.00;;;;;;;;5054946;28;9886;-79
2022/02/06 14:54:04;;;;;;;;;0.00;0.00;;;;;;;;5055527;28;9234;-76
2022/02/06 14:56:33;;;;;;;;;0.00;0.00;;;;;;;;5055338;28;9026;-73
2022/02/06 14:59:01;;;;;;;;;0.00;0.00;;;;;;;;5047075;28;9133;-75
2022/02/06 15:01:29;;;;;;;;;0.67;0.67;;;;;;;;5060354;28;9053;-80
2022/02/06 15:03:57;;;;;;;;;0.67;0.00;;;;;;;;5054312;28;9201;-83
2022/02/06 15:06:24;;;;;;;;;0.00;0.00;;;;;;;;5033153;28;8971;-81
2022/02/06 15:08:53;;;;;;;;;0.00;0.00;;;;;;;;5057596;28;9032;-78
2022/02/06 15:11:20;;;;;;;;;0.00;0.00;;;;;;;;5063646;28;8946;-84
2022/02/06 15:13:47;;;;;;;;;0.00;0.00;;;;;;;;5059670;28;9145;-78
2022/02/06 15:16:18;;;;;;;;;0.00;0.00;;;;;;;;5060868;28;9831;-83
2022/02/06 15:18:54;;;;;;;;;1.00;0.00;;;;;;;;5046620;28;9049;-79
2022/02/06 15:21:21;;;;;;;;;0.00;0.00;;;;;;;;5056958;28;8967;-82
2022/02/06 15:23:49;;;;;;;;;1.00;0.00;;;;;;;;5055325;28;8868;-81
2022/02/06 15:26:17;;;;;;;;;0.00;0.00;;;;;;;;5041560;28;8872;-81
2022/02/06 15:28:47;;;;;;;;;0.00;0.00;;;;;;;;5042978;28;8910;-82
2022/02/06 15:31:14;;;;;;;;;1.00;0.00;;;;;;;;5063709;28;8874;-79
2022/02/06 15:33:42;;;;;;;;;0.00;0.00;;;;;;;;5059127;28;9080;-77
2022/02/06 15:36:09;;;;;;;;;0.00;0.00;;;;;;;;5055817;28;9045;-84
2022/02/06 15:38:37;;;;;;;;;0.00;0.00;;;;;;;;5053208;28;8857;-79
2022/02/06 15:41:05;;;;;;;;;1.00;0.00;;;;;;;;5055240;28;8888;-79
2022/02/06 15:43:34;;;;;;;;;0.00;0.00;;;;;;;;5060272;28;9035;-81
2022/02/06 15:46:02;;;;;;;;;0.00;0.00;;;;;;;;5056628;28;8966;-80
2022/02/06 15:48:29;;;;;;;;;0.00;0.00;;;;;;;;5057501;28;8993;-82
2022/02/06 15:50:57;;;;;;;;;0.00;0.00;;;;;;;;5063442;28;8932;-75
2022/02/06 15:53:24;;;;;;;;;0.00;0.00;;;;;;;;5056938;28;8960;-76
2022/02/06 15:55:52;;;;;;;;;1.00;0.00;;;;;;;;5053534;28;9070;-78
2022/02/06 15:58:19;;;;;;;;;0.00;0.00;;;;;;;;5057584;28;9047;-81
2022/02/06 16:00:48;;;;;;;;;0.00;0.00;;;;;;;;5052849;28;8900;-81
2022/02/06 16:03:16;;;;;;;;;0.00;0.00;;;;;;;;5056485;28;9506;-83
2022/02/06 16:05:43;;;;;;;;;0.00;0.00;;;;;;;;5028625;28;9333;-83
2022/02/06 16:08:11;;;;;;;;;0.00;0.00;;;;;;;;5059298;28;9076;-76
2022/02/06 16:10:38;;;;;;;;;0.00;0.00;;;;;;;;5060571;28;8980;-81
2022/02/06 16:13:08;;;;;;;;;0.00;0.00;;;;;;;;5055485;28;8945;-80
2022/02/06 16:15:36;;;;;;;;;0.00;0.00;;;;;;;;5057457;28;8988;-78
2022/02/06 16:18:04;;;;;;;;;0.00;0.00;;;;;;;;5062397;28;9827;-77
2022/02/06 16:20:32;;;;;;;;;0.25;0.00;;;;;;;;5058854;28;9783;-85
2022/02/06 16:22:59;;;;;;;;;2.00;1.00;;;;;;;;5054556;28;8892;-78
2022/02/06 16:25:27;;;;;;;;;0.00;0.00;;;;;;;;5042856;28;9821;-81
2022/02/06 16:27:55;;;;;;;;;0.00;0.00;;;;;;;;5044883;28;9789;-80
2022/02/06 16:30:22;;;;;;;;;0.00;0.00;;;;;;;;5060990;28;8954;-81
2022/02/06 16:32:50;;;;;;;;;0.00;0.00;;;;;;;;5034702;28;8962;-80
2022/02/06 16:35:19;;;;;;;;;2.00;0.00;;;;;;;;5048618;28;8984;-76
2022/02/06 16:37:46;;;;;;;;;1.00;0.00;;;;;;;;5061585;28;8958;-82
2022/02/06 16:40:14;;;;;;;;;1.00;1.00;;;;;;;;5055770;28;9154;-78
2022/02/06 16:42:43;;;;;;;;;1.00;0.00;;;;;;;;5060007;28;9130;-85